Terminal Aerodrome Forecast
Issued by NWS

Home | Current Version | Previous Version | Text Only | Print | Product List | Glossary On
Versions: 1 2 3 4 5 6 7 8 9 10 11 12 13 14 15 16 17 18 19 20 21 22 23 24 25 26 27 28
000
FTUS43 KGRB 180500
TAFATW
TAF
KATW 180539Z 1806/1906 10003KT P6SM FEW015 BKN090
      TEMPO 1808/1812 3SM BR
     FM181300 13006KT P6SM BKN040 OVC070
      TEMPO 1813/1815 4SM -SHRA
     FM181900 17007KT P6SM VCTS BKN035CB
      TEMPO 1819/1823 3SM -SHRA BKN022
     FM182300 17006KT 5SM -SHRA BKN022
     FM190300 16003KT 3SM -SHRA BR BKN016=

USA.gov is the U.S. government's official web portal to all federal, state and local government web resources and services.